Time;durP1;ratioP1;P1;durP2;ratioP2;P2;SDS_P1;SDS_P2;PMS_P1;PMS_P2;Temp;Humidity;BMP_temperature;BMP_pressure;BME280_temperature;BME280_humidity;BME280_pressure;Samples;Min_cycle;Max_cycle;Signal;HPM_P1;HPM_P2
2022/04/16 00:00:06;;;;;;;;;;;;;;;;;;2198356;59;2512;-70
2022/04/16 00:02:39;;;;;;;;;;;;;;;;;;2202188;59;1198;-70
2022/04/16 00:05:12;;;;;;;;;;;;;;;;;;2201687;59;1784;-70
2022/04/16 00:08:06;;;;;;;;;;;;;;;;;;2202136;59;1193;-70
2022/04/16 00:10:40;;;;;;;;;;;;;;;;;;2201441;59;1687;-70
2022/04/16 00:13:14;;;;;;;;;;;;;;;;;;2202204;59;1468;-70
2022/04/16 00:15:49;;;;;;;;;;;;;;;;;;2200408;60;1262;-73
2022/04/16 00:18:23;;;;;;;;;;;;;;;;;;2200062;67;1971;-72
2022/04/16 00:20:57;;;;;;;;;;;;;;;;;;2201589;59;1297;-72
2022/04/16 00:23:33;;;;;;;;;;;;;;;;;;2208793;66;2492;-72
2022/04/16 00:26:07;;;;;;;;;;;;;;;;;;2201095;59;2708;-72
2022/04/16 00:28:40;;;;;;;;;;;;;;;;;;2201033;59;2199;-72
2022/04/16 00:31:14;;;;;;;;;;;;;;;;;;2200038;59;1851;-72
2022/04/16 00:33:47;;;;;;;;;;;;;;;;;;2202647;59;1092;-71
2022/04/16 00:36:20;;;;;;;;;;;;;;;;;;2200370;59;1747;-72
2022/04/16 00:38:56;;;;;;;;;;;;;;;;;;2201427;67;1934;-71
2022/04/16 00:41:29;;;;;;;;;;;;;;;;;;2201393;59;1868;-71
2022/04/16 00:44:02;;;;;;;;;;;;;;;;;;2202078;59;1299;-71
2022/04/16 00:46:36;;;;;;;;;;;;;;;;;;2202980;59;1382;-71
2022/04/16 00:49:09;;;;;;;;;;;;;;;;;;2200699;59;1574;-71
2022/04/16 00:51:42;;;;;;;;;;;;;;;;;;2203173;54;3590;-70
2022/04/16 00:54:18;;;;;;;;;;;;;;;;;;2206502;59;1133;-70
2022/04/16 00:56:51;;;;;;;;;;;;;;;;;;2208546;59;1227;-70
2022/04/16 00:59:24;;;;;;;;;;;;;;;;;;2203171;59;2105;-70
2022/04/16 01:01:57;;;;;;;;;;;;;;;;;;2201712;58;1912;-71
2022/04/16 01:04:30;;;;;;;;;;;;;;;;;;2201487;58;2072;-70
2022/04/16 01:07:04;;;;;;;;;;;;;;;;;;2203432;59;1280;-70
2022/04/16 01:09:39;;;;;;;;;;;;;;;;;;2202911;59;1801;-70
2022/04/16 01:12:12;;;;;;;;;;;;;;;;;;2204069;59;1392;-70
2022/04/16 01:14:46;;;;;;;;;;;;;;;;;;2204369;59;1911;-70
2022/04/16 01:17:19;;;;;;;;;;;;;;;;;;2203426;59;1306;-70
2022/04/16 01:19:52;;;;;;;;;;;;;;;;;;2202911;59;2121;-70
2022/04/16 01:22:31;;;;;;;;;;;;;;;;;;2200927;59;1794;-70
2022/04/16 01:25:04;;;;;;;;;;;;;;;;;;2202907;59;2697;-70
2022/04/16 01:27:43;;;;;;;;;;;;;;;;;;2200148;58;2332;-70
2022/04/16 01:30:16;;;;;;;;;;;;;;;;;;2205007;59;1871;-70
2022/04/16 01:32:50;;;;;;;;;;;;;;;;;;2203092;59;1268;-71
2022/04/16 01:35:23;;;;;;;;;;;;;;;;;;2212760;58;2101;-70
2022/04/16 01:37:59;;;;;;;;;;;;;;;;;;2203200;59;1920;-71
2022/04/16 01:40:32;;;;;;;;;;;;;;;;;;2200551;58;1898;-70
2022/04/16 01:43:06;;;;;;;;;;;;;;;;;;2204728;59;1906;-70
2022/04/16 01:45:39;;;;;;;;;;;;;;;;;;2203789;58;1886;-69
2022/04/16 01:48:13;;;;;;;;;;;;;;;;;;2203925;58;1519;-71
2022/04/16 01:50:46;;;;;;;;;;;;;;;;;;2201484;58;2105;-70
2022/04/16 01:53:22;;;;;;;;;;;;;;;;;;2203483;59;1236;-70
2022/04/16 01:55:55;;;;;;;;;;;;;;;;;;2208611;66;1235;-70
2022/04/16 01:58:28;;;;;;;;;;;;;;;;;;2202647;59;1928;-70
2022/04/16 02:01:01;;;;;;;;;;;;;;;;;;2200387;59;2204;-70
2022/04/16 02:03:36;;;;;;;;;;;;;;;;;;2204952;59;1273;-70
2022/04/16 02:06:09;;;;;;;;;;;;;;;;;;2203212;58;1974;-70
2022/04/16 02:08:46;;;;;;;;;;;;;;;;;;2203600;58;1839;-70
2022/04/16 02:11:19;;;;;;;;;;;;;;;;;;2203152;59;1853;-70
2022/04/16 02:13:52;;;;;;;;;;;;;;;;;;2204223;59;1385;-70
2022/04/16 02:16:26;;;;;;;;;;;;;;;;;;2205519;59;1199;-70
2022/04/16 02:19:00;;;;;;;;;;;;;;;;;;2203986;59;1933;-70
2022/04/16 02:21:34;;;;;;;;;;;;;;;;;;2204055;59;1295;-70
2022/04/16 02:24:13;;;;;;;;;;;;;;;;;;2202262;59;1178;-70
2022/04/16 02:26:46;;;;;;;;;;;;;;;;;;2201439;59;2453;-70
2022/04/16 02:29:20;;;;;;;;;;;;;;;;;;2202816;59;2664;-70
2022/04/16 02:31:53;;;;;;;;;;;;;;;;;;2202382;58;2123;-70
2022/04/16 02:34:26;;;;;;;;;;;;;;;;;;2202884;59;1832;-70
2022/04/16 02:36:59;;;;;;;;;;;;;;;;;;2202888;67;1243;-70
2022/04/16 02:39:35;;;;;;;;;;;;;;;;;;2202840;59;1948;-70
2022/04/16 02:42:08;;;;;;;;;;;;;;;;;;2204135;66;1195;-71
2022/04/16 02:47:30;;;;;;;;;;;;;;;;;;2203273;59;1222;-70
2022/04/16 02:50:04;;;;;;;;;;;;;;;;;;2202832;58;1847;-70
2022/04/16 02:52:39;;;;;;;;;;;;;;;;;;2202407;58;1946;-70
2022/04/16 02:55:16;;;;;;;;;;;;;;;;;;2204308;66;1192;-70
2022/04/16 02:57:49;;;;;;;;;;;;;;;;;;2202664;58;1788;-70
2022/04/16 03:00:22;;;;;;;;;;;;;;;;;;2202653;59;1947;-70
2022/04/16 03:02:56;;;;;;;;;;;;;;;;;;2203982;59;1081;-70
2022/04/16 03:05:29;;;;;;;;;;;;;;;;;;2204819;59;1884;-70
2022/04/16 03:08:04;;;;;;;;;;;;;;;;;;2203217;59;1298;-70
2022/04/16 03:10:41;;;;;;;;;;;;;;;;;;2203033;59;1894;-70
2022/04/16 03:13:14;;;;;;;;;;;;;;;;;;2199840;59;1413;-70
2022/04/16 03:18:36;;;;;;;;;;;;;;;;;;2199105;59;1920;-70
2022/04/16 03:21:10;;;;;;;;;;;;;;;;;;2200977;59;2208;-70
2022/04/16 03:23:43;;;;;;;;;;;;;;;;;;2202413;58;1785;-70
2022/04/16 03:26:19;;;;;;;;;;;;;;;;;;2203693;58;2533;-70
2022/04/16 03:28:52;;;;;;;;;;;;;;;;;;2204204;58;2307;-70
2022/04/16 03:31:26;;;;;;;;;;;;;;;;;;2202481;58;1851;-70
2022/04/16 03:33:59;;;;;;;;;;;;;;;;;;2202380;58;2057;-70
2022/04/16 03:36:32;;;;;;;;;;;;;;;;;;2203722;58;2159;-70
2022/04/16 03:39:05;;;;;;;;;;;;;;;;;;2199995;67;1942;-70
2022/04/16 03:41:41;;;;;;;;;;;;;;;;;;2204472;59;1245;-70
2022/04/16 03:44:14;;;;;;;;;;;;;;;;;;2203977;59;1920;-71
2022/04/16 03:46:48;;;;;;;;;;;;;;;;;;2208175;59;1826;-70
2022/04/16 03:49:21;;;;;;;;;;;;;;;;;;2203561;59;1621;-70
2022/04/16 03:51:54;;;;;;;;;;;;;;;;;;2201674;58;2098;-70
2022/04/16 04:00:09;;;;;;;;;;;;;;;;;;2202038;59;1930;-70
2022/04/16 04:02:42;;;;;;;;;;;;;;;;;;2203876;59;1097;-70
2022/04/16 04:05:15;;;;;;;;;;;;;;;;;;2203036;59;2262;-70
2022/04/16 04:07:48;;;;;;;;;;;;;;;;;;2202942;67;1147;-70
2022/04/16 04:10:21;;;;;;;;;;;;;;;;;;2202058;59;1948;-70
2022/04/16 04:12:57;;;;;;;;;;;;;;;;;;2202751;59;1376;-70
2022/04/16 04:15:30;;;;;;;;;;;;;;;;;;2202637;59;1402;-70
2022/04/16 04:18:04;;;;;;;;;;;;;;;;;;2203307;59;1188;-70
2022/04/16 04:20:37;;;;;;;;;;;;;;;;;;2202706;59;2006;-70
2022/04/16 04:23:10;;;;;;;;;;;;;;;;;;2202690;59;1586;-70
2022/04/16 04:25:43;;;;;;;;;;;;;;;;;;2203412;67;1181;-70
2022/04/16 04:28:19;;;;;;;;;;;;;;;;;;2203052;59;2491;-70
2022/04/16 04:30:52;;;;;;;;;;;;;;;;;;2196840;59;2094;-70
2022/04/16 04:33:25;;;;;;;;;;;;;;;;;;2199704;59;2042;-70
2022/04/16 04:35:58;;;;;;;;;;;;;;;;;;2199489;59;1891;-70
2022/04/16 04:38:32;;;;;;;;;;;;;;;;;;2203415;59;1311;-70
2022/04/16 04:41:07;;;;;;;;;;;;;;;;;;2202682;67;1936;-70
2022/04/16 04:43:42;;;;;;;;;;;;;;;;;;2203245;59;1316;-70
2022/04/16 04:46:15;;;;;;;;;;;;;;;;;;2203332;59;1382;-70
2022/04/16 04:48:49;;;;;;;;;;;;;;;;;;2205652;59;1336;-70
2022/04/16 04:51:22;;;;;;;;;;;;;;;;;;2205371;59;2087;-70
2022/04/16 04:53:55;;;;;;;;;;;;;;;;;;2202608;66;1662;-70
2022/04/16 04:56:28;;;;;;;;;;;;;;;;;;2201708;59;1214;-70
2022/04/16 04:59:04;;;;;;;;;;;;;;;;;;2202797;67;1945;-70
2022/04/16 05:01:37;;;;;;;;;;;;;;;;;;2199516;59;1212;-70
2022/04/16 05:04:10;;;;;;;;;;;;;;;;;;2201966;59;2244;-70
2022/04/16 05:06:43;;;;;;;;;;;;;;;;;;2200831;58;2020;-70
2022/04/16 05:09:16;;;;;;;;;;;;;;;;;;2202218;59;1298;-70
2022/04/16 05:11:49;;;;;;;;;;;;;;;;;;2201986;59;2036;-70
2022/04/16 05:14:25;;;;;;;;;;;;;;;;;;2203571;59;1428;-69
2022/04/16 05:16:58;;;;;;;;;;;;;;;;;;2203980;59;1393;-70
2022/04/16 05:19:32;;;;;;;;;;;;;;;;;;2204034;59;1995;-70
2022/04/16 05:22:05;;;;;;;;;;;;;;;;;;2201839;59;1236;-70
2022/04/16 05:24:39;;;;;;;;;;;;;;;;;;2203194;67;1116;-70
2022/04/16 05:27:12;;;;;;;;;;;;;;;;;;2199463;59;1302;-70
2022/04/16 05:30:06;;;;;;;;;;;;;;;;;;2202677;59;2427;-70
2022/04/16 05:32:40;;;;;;;;;;;;;;;;;;2204595;59;1207;-70
2022/04/16 05:35:14;;;;;;;;;;;;;;;;;;2202804;67;1865;-70
2022/04/16 05:37:47;;;;;;;;;;;;;;;;;;2203323;59;1433;-70
2022/04/16 05:40:20;;;;;;;;;;;;;;;;;;2203587;67;1932;-70
2022/04/16 05:42:53;;;;;;;;;;;;;;;;;;2203652;59;1528;-70
2022/04/16 05:45:29;;;;;;;;;;;;;;;;;;2203320;59;1195;-70
2022/04/16 05:48:02;;;;;;;;;;;;;;;;;;2203684;59;1207;-70
2022/04/16 05:50:37;;;;;;;;;;;;;;;;;;2200972;58;1908;-70
2022/04/16 05:53:11;;;;;;;;;;;;;;;;;;2204853;59;1518;-70
2022/04/16 05:55:47;;;;;;;;;;;;;;;;;;2204754;66;1249;-70
2022/04/16 05:58:21;;;;;;;;;;;;;;;;;;2201866;59;1492;-70
2022/04/16 06:00:57;;;;;;;;;;;;;;;;;;2204374;59;1992;-70
2022/04/16 06:03:30;;;;;;;;;;;;;;;;;;2202212;66;1333;-70
2022/04/16 06:06:03;;;;;;;;;;;;;;;;;;2202871;59;1895;-70
2022/04/16 06:08:37;;;;;;;;;;;;;;;;;;2202594;59;1077;-70
2022/04/16 06:11:12;;;;;;;;;;;;;;;;;;2205138;59;1924;-70
2022/04/16 06:13:45;;;;;;;;;;;;;;;;;;2203617;59;1371;-70
2022/04/16 06:16:21;;;;;;;;;;;;;;;;;;2203621;59;1363;-70
2022/04/16 06:18:54;;;;;;;;;;;;;;;;;;2204896;59;1528;-70
2022/04/16 06:21:27;;;;;;;;;;;;;;;;;;2210078;58;1936;-70
2022/04/16 06:24:00;;;;;;;;;;;;;;;;;;2203020;67;1187;-70
2022/04/16 06:26:33;;;;;;;;;;;;;;;;;;2210122;59;1274;-70
2022/04/16 06:29:06;;;;;;;;;;;;;;;;;;2204384;59;2177;-70
2022/04/16 06:31:42;;;;;;;;;;;;;;;;;;2201410;58;2586;-70
2022/04/16 06:34:16;;;;;;;;;;;;;;;;;;2202446;59;5854;-70
2022/04/16 06:36:49;;;;;;;;;;;;;;;;;;2203375;59;1330;-70
2022/04/16 06:39:22;;;;;;;;;;;;;;;;;;2204452;59;1252;-70
2022/04/16 06:41:55;;;;;;;;;;;;;;;;;;2203674;59;1990;-70
2022/04/16 06:44:28;;;;;;;;;;;;;;;;;;2203696;59;1648;-70
2022/04/16 06:47:04;;;;;;;;;;;;;;;;;;2206860;59;1256;-70
2022/04/16 06:52:12;;;;;;;;;;;;;;;;;;2196930;59;2024;-71
2022/04/16 06:54:45;;;;;;;;;;;;;;;;;;2198850;59;1175;-72
2022/04/16 06:57:19;;;;;;;;;;;;;;;;;;2201942;59;1299;-71
2022/04/16 06:59:52;;;;;;;;;;;;;;;;;;2199363;59;1926;-72
2022/04/16 07:02:28;;;;;;;;;;;;;;;;;;2198454;67;1081;-72
2022/04/16 07:05:02;;;;;;;;;;;;;;;;;;2206840;59;2297;-71
2022/04/16 07:07:35;;;;;;;;;;;;;;;;;;2203264;59;1259;-72
2022/04/16 07:10:09;;;;;;;;;;;;;;;;;;2201542;59;1851;-72
2022/04/16 07:12:42;;;;;;;;;;;;;;;;;;2197611;59;1317;-71
2022/04/16 07:15:15;;;;;;;;;;;;;;;;;;2199393;67;1119;-72
2022/04/16 07:17:51;;;;;;;;;;;;;;;;;;2200654;59;1507;-71
2022/04/16 07:20:24;;;;;;;;;;;;;;;;;;2198428;67;1979;-72
2022/04/16 07:22:57;;;;;;;;;;;;;;;;;;2198323;59;1392;-71
2022/04/16 07:25:30;;;;;;;;;;;;;;;;;;2201303;59;1240;-72
2022/04/16 07:28:03;;;;;;;;;;;;;;;;;;2198992;59;1736;-72
2022/04/16 07:30:36;;;;;;;;;;;;;;;;;;2198212;59;1959;-71
2022/04/16 07:33:12;;;;;;;;;;;;;;;;;;2200596;59;2590;-72
2022/04/16 07:35:46;;;;;;;;;;;;;;;;;;2196137;59;1798;-72
2022/04/16 07:38:19;;;;;;;;;;;;;;;;;;2198854;67;1269;-71
2022/04/16 07:40:52;;;;;;;;;;;;;;;;;;2198785;59;1928;-72
2022/04/16 07:43:26;;;;;;;;;;;;;;;;;;2198483;59;1266;-72
2022/04/16 07:46:00;;;;;;;;;;;;;;;;;;2205437;59;1551;-71
2022/04/16 07:48:37;;;;;;;;;;;;;;;;;;2203884;59;1361;-71
2022/04/16 07:51:10;;;;;;;;;;;;;;;;;;2202219;59;1926;-71
2022/04/16 07:53:44;;;;;;;;;;;;;;;;;;2198221;59;1239;-72
2022/04/16 07:56:17;;;;;;;;;;;;;;;;;;2204759;67;1164;-71
2022/04/16 07:58:50;;;;;;;;;;;;;;;;;;2198375;59;1284;-72
2022/04/16 08:01:23;;;;;;;;;;;;;;;;;;2205255;59;2240;-72
2022/04/16 08:04:00;;;;;;;;;;;;;;;;;;2197057;59;1244;-71
2022/04/16 08:06:33;;;;;;;;;;;;;;;;;;2196973;59;2459;-71
2022/04/16 08:09:06;;;;;;;;;;;;;;;;;;2197796;59;1146;-71
2022/04/16 08:11:39;;;;;;;;;;;;;;;;;;2197508;59;1870;-71
2022/04/16 08:14:12;;;;;;;;;;;;;;;;;;2198834;59;1445;-71
2022/04/16 08:16:45;;;;;;;;;;;;;;;;;;2198143;59;1299;-71
2022/04/16 08:19:21;;;;;;;;;;;;;;;;;;2199192;59;1224;-71
2022/04/16 08:21:55;;;;;;;;;;;;;;;;;;2201526;59;1929;-71
2022/04/16 08:24:42;;;;;;;;;;;;;;;;;;2200138;59;1383;-72
2022/04/16 08:27:15;;;;;;;;;;;;;;;;;;2197478;67;1298;-71
2022/04/16 08:29:48;;;;;;;;;;;;;;;;;;2203473;59;1892;-70
2022/04/16 08:32:21;;;;;;;;;;;;;;;;;;2200194;59;2356;-70
2022/04/16 08:34:57;;;;;;;;;;;;;;;;;;2202580;59;2177;-72
2022/04/16 08:37:31;;;;;;;;;;;;;;;;;;2198761;59;1686;-73
2022/04/16 08:40:04;;;;;;;;;;;;;;;;;;2201429;59;1209;-72
2022/04/16 08:42:39;;;;;;;;;;;;;;;;;;2200963;66;1926;-72
2022/04/16 08:45:12;;;;;;;;;;;;;;;;;;2202304;66;1268;-72
2022/04/16 08:47:46;;;;;;;;;;;;;;;;;;2200917;59;1354;-72
2022/04/16 08:50:22;;;;;;;;;;;;;;;;;;2205753;59;1645;-71
2022/04/16 08:52:55;;;;;;;;;;;;;;;;;;2198612;59;1278;-72
2022/04/16 08:55:29;;;;;;;;;;;;;;;;;;2199554;59;1589;-70
2022/04/16 08:58:02;;;;;;;;;;;;;;;;;;2201620;59;1283;-71
2022/04/16 09:00:35;;;;;;;;;;;;;;;;;;2200311;59;1935;-70
2022/04/16 09:03:09;;;;;;;;;;;;;;;;;;2197746;59;2121;-71
2022/04/16 09:05:45;;;;;;;;;;;;;;;;;;2199515;67;1740;-71
2022/04/16 09:08:18;;;;;;;;;;;;;;;;;;2203880;59;1204;-71
2022/04/16 09:10:51;;;;;;;;;;;;;;;;;;2200661;59;1835;-71
2022/04/16 09:13:24;;;;;;;;;;;;;;;;;;2197535;59;1389;-71
2022/04/16 09:16:04;;;;;;;;;;;;;;;;;;2199324;59;1444;-70
2022/04/16 09:18:47;;;;;;;;;;;;;;;;;;2198954;59;1217;-71
2022/04/16 09:21:27;;;;;;;;;;;;;;;;;;2197431;59;1929;-71
2022/04/16 09:24:01;;;;;;;;;;;;;;;;;;2195985;59;1664;-71
2022/04/16 09:26:35;;;;;;;;;;;;;;;;;;2197592;67;1222;-71
2022/04/16 09:29:09;;;;;;;;;;;;;;;;;;2205203;59;1352;-72
2022/04/16 09:31:43;;;;;;;;;;;;;;;;;;2200142;59;2032;-71
2022/04/16 09:34:20;;;;;;;;;;;;;;;;;;2202256;59;2433;-71
2022/04/16 09:36:56;;;;;;;;;;;;;;;;;;2196940;67;1182;-71
2022/04/16 09:39:30;;;;;;;;;;;;;;;;;;2200583;59;1260;-71
2022/04/16 09:42:03;;;;;;;;;;;;;;;;;;2200069;59;2107;-71
2022/04/16 09:44:36;;;;;;;;;;;;;;;;;;2204002;67;1195;-71
2022/04/16 09:47:09;;;;;;;;;;;;;;;;;;2201205;59;1829;-71
2022/04/16 09:49:43;;;;;;;;;;;;;;;;;;2197837;58;1829;-70
2022/04/16 09:52:23;;;;;;;;;;;;;;;;;;2196860;59;1495;-71
2022/04/16 09:55:00;;;;;;;;;;;;;;;;;;2201107;59;1248;-71
2022/04/16 09:57:36;;;;;;;;;;;;;;;;;;2202835;59;1312;-71
2022/04/16 10:00:11;;;;;;;;;;;;;;;;;;2197308;59;1199;-70
2022/04/16 10:02:45;;;;;;;;;;;;;;;;;;2198158;59;1953;-71
2022/04/16 10:05:18;;;;;;;;;;;;;;;;;;2198113;59;2402;-71
2022/04/16 10:07:55;;;;;;;;;;;;;;;;;;2193870;59;1837;-71
2022/04/16 10:10:30;;;;;;;;;;;;;;;;;;2196861;59;1694;-72
2022/04/16 10:13:09;;;;;;;;;;;;;;;;;;2199309;59;1482;-71
2022/04/16 10:16:02;;;;;;;;;;;;;;;;;;2200071;59;1281;-72
2022/04/16 10:18:36;;;;;;;;;;;;;;;;;;2197718;59;1202;-72
2022/04/16 10:21:16;;;;;;;;;;;;;;;;;;2198502;67;1930;-70
2022/04/16 10:24:02;;;;;;;;;;;;;;;;;;2198629;59;1253;-71
2022/04/16 10:26:40;;;;;;;;;;;;;;;;;;2200155;59;1456;-70
2022/04/16 10:29:13;;;;;;;;;;;;;;;;;;2198507;59;1227;-70
2022/04/16 10:31:51;;;;;;;;;;;;;;;;;;2200984;59;2002;-70
2022/04/16 10:34:31;;;;;;;;;;;;;;;;;;2198812;59;2102;-70
2022/04/16 10:37:04;;;;;;;;;;;;;;;;;;2201391;66;2754;-71
2022/04/16 10:39:46;;;;;;;;;;;;;;;;;;2197952;59;1753;-71
2022/04/16 10:42:19;;;;;;;;;;;;;;;;;;2198563;59;1930;-70
2022/04/16 10:44:53;;;;;;;;;;;;;;;;;;2197636;59;1903;-70
2022/04/16 10:47:26;;;;;;;;;;;;;;;;;;2199224;59;1222;-70
2022/04/16 10:50:00;;;;;;;;;;;;;;;;;;2198967;59;1851;-71
2022/04/16 10:52:34;;;;;;;;;;;;;;;;;;2199033;59;1716;-71
2022/04/16 10:55:11;;;;;;;;;;;;;;;;;;2198147;67;1099;-70
2022/04/16 10:57:45;;;;;;;;;;;;;;;;;;2199124;59;1226;-71
2022/04/16 11:00:18;;;;;;;;;;;;;;;;;;2209280;59;1288;-71
2022/04/16 11:02:51;;;;;;;;;;;;;;;;;;2198450;59;1981;-71
2022/04/16 11:05:24;;;;;;;;;;;;;;;;;;2197823;59;2297;-70
2022/04/16 11:07:58;;;;;;;;;;;;;;;;;;2198260;67;1186;-71
2022/04/16 11:10:34;;;;;;;;;;;;;;;;;;2198460;59;1767;-71
2022/04/16 11:13:07;;;;;;;;;;;;;;;;;;2197982;59;2088;-71
2022/04/16 11:15:42;;;;;;;;;;;;;;;;;;2198314;59;1307;-71
2022/04/16 11:18:18;;;;;;;;;;;;;;;;;;2198743;59;1319;-71
2022/04/16 11:20:57;;;;;;;;;;;;;;;;;;2199059;67;1208;-71
2022/04/16 11:23:31;;;;;;;;;;;;;;;;;;2200506;59;1937;-70
2022/04/16 11:34:39;;;;;;;;;;;;;;;;;;2204088;59;2428;-70
2022/04/16 11:37:12;;;;;;;;;;;;;;;;;;2201850;59;2717;-69
2022/04/16 11:39:46;;;;;;;;;;;;;;;;;;2199275;67;1318;-70
2022/04/16 11:42:24;;;;;;;;;;;;;;;;;;2202242;59;1929;-70
2022/04/16 11:44:58;;;;;;;;;;;;;;;;;;2197756;67;1211;-71
2022/04/16 11:47:31;;;;;;;;;;;;;;;;;;2194976;59;1588;-70
2022/04/16 11:50:07;;;;;;;;;;;;;;;;;;2197129;59;2138;-70
2022/04/16 11:52:41;;;;;;;;;;;;;;;;;;2197269;59;1440;-70
2022/04/16 11:55:16;;;;;;;;;;;;;;;;;;2204360;66;1181;-70
2022/04/16 11:57:53;;;;;;;;;;;;;;;;;;2200984;59;1213;-70
2022/04/16 12:00:26;;;;;;;;;;;;;;;;;;2197898;59;1238;-70
2022/04/16 12:03:00;;;;;;;;;;;;;;;;;;2198625;59;1935;-70
2022/04/16 12:05:33;;;;;;;;;;;;;;;;;;2198072;59;2107;-70
2022/04/16 12:08:10;;;;;;;;;;;;;;;;;;2198599;67;1203;-69
2022/04/16 12:10:45;;;;;;;;;;;;;;;;;;2197781;59;2084;-70
2022/04/16 12:13:21;;;;;;;;;;;;;;;;;;2198289;59;1256;-70
2022/04/16 12:15:54;;;;;;;;;;;;;;;;;;2197402;59;1296;-70
2022/04/16 12:18:36;;;;;;;;;;;;;;;;;;2199049;59;1143;-70
2022/04/16 12:21:10;;;;;;;;;;;;;;;;;;2199455;66;1163;-71
2022/04/16 12:23:44;;;;;;;;;;;;;;;;;;2200656;59;1987;-70
2022/04/16 12:26:18;;;;;;;;;;;;;;;;;;2199544;67;1199;-70
2022/04/16 12:28:55;;;;;;;;;;;;;;;;;;2203589;59;1398;-71
2022/04/16 12:31:29;;;;;;;;;;;;;;;;;;2203594;59;2260;-70
2022/04/16 12:34:02;;;;;;;;;;;;;;;;;;2198813;67;1064;-70
2022/04/16 12:36:36;;;;;;;;;;;;;;;;;;2198782;59;2332;-71
2022/04/16 12:39:09;;;;;;;;;;;;;;;;;;2200802;66;2502;-71
2022/04/16 12:41:42;;;;;;;;;;;;;;;;;;2197434;59;1930;-70
2022/04/16 12:44:18;;;;;;;;;;;;;;;;;;2205196;67;1106;-70
2022/04/16 12:46:51;;;;;;;;;;;;;;;;;;2200769;59;1887;-70
2022/04/16 12:49:24;;;;;;;;;;;;;;;;;;2198351;59;1691;-70
2022/04/16 12:51:58;;;;;;;;;;;;;;;;;;2202997;54;3839;-73
2022/04/16 12:54:31;;;;;;;;;;;;;;;;;;2206719;59;1832;-72
2022/04/16 12:57:05;;;;;;;;;;;;;;;;;;2206414;59;1965;-72
2022/04/16 12:59:41;;;;;;;;;;;;;;;;;;2207674;59;1251;-72
2022/04/16 13:02:14;;;;;;;;;;;;;;;;;;2206228;59;1929;-72
2022/04/16 13:04:47;;;;;;;;;;;;;;;;;;2205025;59;1906;-72
2022/04/16 13:07:20;;;;;;;;;;;;;;;;;;2203704;59;1486;-72
2022/04/16 13:09:53;;;;;;;;;;;;;;;;;;2205677;59;1143;-72
2022/04/16 13:12:27;;;;;;;;;;;;;;;;;;2203944;58;1728;-72
2022/04/16 13:15:03;;;;;;;;;;;;;;;;;;2208467;59;1084;-73
2022/04/16 13:17:36;;;;;;;;;;;;;;;;;;2201595;59;1302;-71
2022/04/16 13:20:12;;;;;;;;;;;;;;;;;;2204222;59;1313;-72
2022/04/16 13:22:46;;;;;;;;;;;;;;;;;;2205897;59;1936;-72
2022/04/16 13:25:19;;;;;;;;;;;;;;;;;;2205571;67;1152;-72
2022/04/16 13:27:52;;;;;;;;;;;;;;;;;;2202740;59;1563;-72
2022/04/16 13:30:28;;;;;;;;;;;;;;;;;;2204835;59;1609;-73
2022/04/16 13:33:01;;;;;;;;;;;;;;;;;;2206966;59;1111;-73
2022/04/16 13:35:34;;;;;;;;;;;;;;;;;;2205823;59;2004;-72
2022/04/16 13:38:08;;;;;;;;;;;;;;;;;;2205315;59;3004;-73
2022/04/16 13:43:30;;;;;;;;;;;;;;;;;;2204319;59;1934;-72
2022/04/16 13:46:06;;;;;;;;;;;;;;;;;;2207885;59;1962;-72
2022/04/16 13:48:39;;;;;;;;;;;;;;;;;;2208668;59;1226;-72
2022/04/16 13:51:12;;;;;;;;;;;;;;;;;;2206803;59;1820;-72
2022/04/16 13:53:45;;;;;;;;;;;;;;;;;;2207778;67;1133;-72
2022/04/16 13:56:19;;;;;;;;;;;;;;;;;;2203928;59;1435;-71
2022/04/16 13:58:52;;;;;;;;;;;;;;;;;;2205037;67;1318;-72
2022/04/16 14:01:28;;;;;;;;;;;;;;;;;;2206625;59;1244;-73
2022/04/16 14:04:02;;;;;;;;;;;;;;;;;;2204823;59;1928;-72
2022/04/16 14:06:35;;;;;;;;;;;;;;;;;;2204859;59;2587;-72
2022/04/16 14:09:08;;;;;;;;;;;;;;;;;;2201713;67;1516;-72
2022/04/16 14:11:42;;;;;;;;;;;;;;;;;;2205493;59;1852;-72
2022/04/16 14:14:15;;;;;;;;;;;;;;;;;;2204224;59;1464;-72
2022/04/16 14:16:51;;;;;;;;;;;;;;;;;;2207739;58;1748;-72
2022/04/16 14:19:24;;;;;;;;;;;;;;;;;;2207570;59;1826;-72
2022/04/16 14:21:57;;;;;;;;;;;;;;;;;;2207258;58;1953;-73
2022/04/16 14:24:30;;;;;;;;;;;;;;;;;;2205528;59;1984;-73
2022/04/16 14:27:05;;;;;;;;;;;;;;;;;;2205664;58;1433;-73
2022/04/16 14:29:38;;;;;;;;;;;;;;;;;;2205687;60;1266;-73
2022/04/16 14:32:15;;;;;;;;;;;;;;;;;;2205331;59;1577;-73
2022/04/16 14:34:48;;;;;;;;;;;;;;;;;;2207238;67;1848;-73
2022/04/16 14:37:21;;;;;;;;;;;;;;;;;;2205903;58;2131;-74
2022/04/16 14:39:54;;;;;;;;;;;;;;;;;;2206555;59;2935;-73
2022/04/16 14:42:28;;;;;;;;;;;;;;;;;;2203675;59;1994;-73
2022/04/16 14:45:01;;;;;;;;;;;;;;;;;;2204830;67;1318;-73
2022/04/16 14:47:37;;;;;;;;;;;;;;;;;;2205751;59;1367;-73
2022/04/16 14:50:11;;;;;;;;;;;;;;;;;;2205134;67;1060;-73
2022/04/16 14:52:44;;;;;;;;;;;;;;;;;;2206874;59;2036;-73
2022/04/16 14:55:17;;;;;;;;;;;;;;;;;;2206276;59;1174;-73
2022/04/16 14:57:51;;;;;;;;;;;;;;;;;;2205423;59;1492;-73
2022/04/16 15:00:24;;;;;;;;;;;;;;;;;;2204742;59;1173;-73
2022/04/16 15:03:00;;;;;;;;;;;;;;;;;;2205705;58;1925;-73
2022/04/16 15:05:33;;;;;;;;;;;;;;;;;;2207967;59;2319;-73
2022/04/16 15:08:07;;;;;;;;;;;;;;;;;;2205352;59;1582;-73
2022/04/16 15:10:40;;;;;;;;;;;;;;;;;;2204738;59;1905;-74
2022/04/16 15:13:13;;;;;;;;;;;;;;;;;;2207843;58;1296;-73
2022/04/16 15:15:46;;;;;;;;;;;;;;;;;;2202472;67;1223;-74
2022/04/16 15:18:22;;;;;;;;;;;;;;;;;;2205347;59;1158;-73
2022/04/16 15:20:55;;;;;;;;;;;;;;;;;;2205127;59;1308;-74
2022/04/16 15:23:29;;;;;;;;;;;;;;;;;;2208310;66;1985;-73
2022/04/16 15:26:02;;;;;;;;;;;;;;;;;;2212557;59;1342;-73
2022/04/16 15:28:35;;;;;;;;;;;;;;;;;;2205769;67;1050;-73
2022/04/16 15:31:10;;;;;;;;;;;;;;;;;;2204993;59;1922;-73
2022/04/16 15:33:46;;;;;;;;;;;;;;;;;;2207634;59;1050;-73
2022/04/16 15:36:20;;;;;;;;;;;;;;;;;;2205441;58;2125;-73
2022/04/16 15:38:53;;;;;;;;;;;;;;;;;;2206650;59;2139;-73
2022/04/16 15:41:26;;;;;;;;;;;;;;;;;;2207019;59;2231;-73
2022/04/16 15:44:03;;;;;;;;;;;;;;;;;;2206595;58;2078;-73
2022/04/16 15:46:36;;;;;;;;;;;;;;;;;;2205552;59;1521;-73
2022/04/16 15:49:12;;;;;;;;;;;;;;;;;;2206815;59;1610;-74
2022/04/16 15:51:47;;;;;;;;;;;;;;;;;;2204813;58;1756;-73
2022/04/16 15:54:20;;;;;;;;;;;;;;;;;;2206309;59;1146;-73
2022/04/16 15:56:53;;;;;;;;;;;;;;;;;;2205294;59;1174;-73
2022/04/16 15:59:26;;;;;;;;;;;;;;;;;;2204508;67;1123;-73
2022/04/16 16:01:59;;;;;;;;;;;;;;;;;;2205048;59;1480;-73
2022/04/16 16:07:24;;;;;;;;;;;;;;;;;;2204812;58;1997;-73
2022/04/16 16:09:57;;;;;;;;;;;;;;;;;;2208604;67;1252;-73
2022/04/16 16:12:31;;;;;;;;;;;;;;;;;;2205273;58;1786;-74
2022/04/16 16:15:06;;;;;;;;;;;;;;;;;;2206584;67;1086;-73
2022/04/16 16:17:41;;;;;;;;;;;;;;;;;;2206364;59;1199;-73
2022/04/16 16:20:17;;;;;;;;;;;;;;;;;;2205789;67;1234;-73
2022/04/16 16:22:51;;;;;;;;;;;;;;;;;;2205057;59;1984;-73
2022/04/16 16:25:24;;;;;;;;;;;;;;;;;;2204775;59;1199;-73
2022/04/16 16:27:57;;;;;;;;;;;;;;;;;;2204661;58;2255;-73
2022/04/16 16:30:32;;;;;;;;;;;;;;;;;;2204785;59;1892;-73
2022/04/16 16:33:06;;;;;;;;;;;;;;;;;;2208439;67;1179;-73
2022/04/16 16:35:42;;;;;;;;;;;;;;;;;;2205467;59;1775;-73
2022/04/16 16:38:18;;;;;;;;;;;;;;;;;;2207166;59;1077;-73
2022/04/16 16:40:52;;;;;;;;;;;;;;;;;;2207370;59;2550;-73
2022/04/16 16:43:25;;;;;;;;;;;;;;;;;;2206941;66;2315;-73
2022/04/16 16:45:59;;;;;;;;;;;;;;;;;;2205662;59;1281;-74
2022/04/16 16:48:32;;;;;;;;;;;;;;;;;;2206531;59;1367;-73
2022/04/16 16:51:08;;;;;;;;;;;;;;;;;;2204199;59;1956;-73
2022/04/16 16:53:41;;;;;;;;;;;;;;;;;;2207870;66;1178;-73
2022/04/16 16:56:14;;;;;;;;;;;;;;;;;;2206497;59;1287;-73
2022/04/16 16:58:47;;;;;;;;;;;;;;;;;;2200402;58;1880;-73
2022/04/16 17:01:21;;;;;;;;;;;;;;;;;;2206989;59;2012;-73
2022/04/16 17:06:46;;;;;;;;;;;;;;;;;;2204971;59;1223;-73
2022/04/16 17:09:19;;;;;;;;;;;;;;;;;;2205820;66;1112;-73
2022/04/16 17:11:52;;;;;;;;;;;;;;;;;;2205473;58;1718;-73
2022/04/16 17:20:03;;;;;;;;;;;;;;;;;;2205043;67;1215;-73
2022/04/16 17:22:39;;;;;;;;;;;;;;;;;;2205180;59;1275;-74
2022/04/16 17:25:13;;;;;;;;;;;;;;;;;;2204985;67;1985;-73
2022/04/16 17:27:50;;;;;;;;;;;;;;;;;;2206354;59;1427;-73
2022/04/16 17:30:23;;;;;;;;;;;;;;;;;;2203982;59;1879;-73
2022/04/16 17:32:56;;;;;;;;;;;;;;;;;;2210146;59;1283;-73
2022/04/16 17:35:31;;;;;;;;;;;;;;;;;;2204898;59;1783;-73
2022/04/16 17:38:07;;;;;;;;;;;;;;;;;;2204799;59;1374;-73
2022/04/16 17:40:41;;;;;;;;;;;;;;;;;;2204805;59;2146;-73
2022/04/16 17:43:14;;;;;;;;;;;;;;;;;;2206939;59;2568;-73
2022/04/16 17:45:47;;;;;;;;;;;;;;;;;;2206403;59;1813;-73
2022/04/16 17:48:20;;;;;;;;;;;;;;;;;;2207905;59;1309;-73
2022/04/16 17:50:54;;;;;;;;;;;;;;;;;;2204417;59;1914;-73
2022/04/16 17:53:30;;;;;;;;;;;;;;;;;;2208999;59;1146;-73
2022/04/16 17:56:03;;;;;;;;;;;;;;;;;;2205697;59;1141;-73
2022/04/16 17:58:36;;;;;;;;;;;;;;;;;;2204975;59;1268;-73
2022/04/16 18:01:09;;;;;;;;;;;;;;;;;;2204983;59;1223;-73
2022/04/16 18:03:42;;;;;;;;;;;;;;;;;;2201749;59;1920;-73
2022/04/16 18:06:15;;;;;;;;;;;;;;;;;;2202512;59;2062;-73
2022/04/16 18:08:52;;;;;;;;;;;;;;;;;;2205203;67;1216;-73
2022/04/16 18:11:26;;;;;;;;;;;;;;;;;;2204370;59;2144;-73
2022/04/16 18:13:59;;;;;;;;;;;;;;;;;;2209137;59;1295;-74
2022/04/16 18:16:32;;;;;;;;;;;;;;;;;;2205535;59;1816;-73
2022/04/16 18:19:08;;;;;;;;;;;;;;;;;;2208577;59;1290;-73
2022/04/16 18:21:41;;;;;;;;;;;;;;;;;;2205280;67;1256;-72
2022/04/16 18:24:19;;;;;;;;;;;;;;;;;;2206079;59;1930;-73
2022/04/16 18:26:52;;;;;;;;;;;;;;;;;;2206962;67;1242;-73